Stations météo

réclame
Mon MeteoGroup
Kleiner Feldberg/Taunus, Allemagne (10635): Température de l'air & dewpoint: 19.09.2018 09:00:00 - 25.09.2018 09:00:00 (CEST)Kleiner Feldberg/Taunus, Allemagne (10635): Température de l'air 5cm & Température de l'air -5cm: 19.09.2018 09:00:00 - 25.09.2018 09:00:00 (CEST)Kleiner Feldberg/Taunus, Allemagne (10635): Température de l'air -20cm & Température de l'air -100cm: 19.09.2018 09:00:00 - 25.09.2018 09:00:00 (CEST)Kleiner Feldberg/Taunus, Allemagne (10635): Vitesse du vent & gusts: 19.09.2018 09:00:00 - 25.09.2018 09:00:00 (CEST)Kleiner Feldberg/Taunus, Allemagne (10635): Direction du vent: 19.09.2018 09:00:00 - 25.09.2018 09:00:00 (CEST)Kleiner Feldberg/Taunus, Allemagne (10635): visibility: 19.09.2018 09:00:00 - 25.09.2018 09:00:00 (CEST)Kleiner Feldberg/Taunus, Allemagne (10635): Ensoleillement: 19.09.2018 09:00:00 - 25.09.2018 09:00:00 (CEST)Kleiner Feldberg/Taunus, Allemagne (10635): Quantités de précipitations: 19.09.2018 09:00:00 - 25.09.2018 09:00:00 (CEST)
Date & Time tt [°C] td [°C] tt 5cm [°C] tt -5cm [°C] tt -20cm [°C] tt -100cm [°C] ff [km/h] ff [knt] fx [km/h] fx [knt] dd vv [km] sd [min] rr [mm]
25.09.2018 09:00:00 4,8 0,3 4,2 4,5 7,9 13,1 11 6 24 13 NNE 18 - 0,0
25.09.2018 08:00:00 3,3 0,5 0,8 2,6 8,1 13,1 16 9 20 11 NNE 70 - 0,0
25.09.2018 07:00:00 2,5 1,2 0,7 2,8 8,3 13,1 13 7 23 12 N 56 0 0,0
25.09.2018 06:00:00 2,8 1,4 1,1 3,0 8,6 13,1 16 9 23 13 N 49 0 0,0
25.09.2018 05:00:00 2,4 2,2 1,3 3,3 8,8 13,1 14 7 26 14 N 4,8 0 0,0
25.09.2018 04:00:00 2,8 2,5 1,7 3,5 9,1 13,2 16 9 26 14 N 16 0 0,0
25.09.2018 03:00:00 2,9 2,5 1,9 3,8 9,3 13,2 16 9 32 18 N 18 0 0,0
25.09.2018 02:00:00 2,9 2,4 2,0 4,1 9,6 13,2 18 10 29 16 N 30 0 0,0
25.09.2018 01:00:00 3,3 2,4 2,3 4,4 9,9 13,2 19 10 36 19 NNW 42 0 0,0
25.09.2018 00:00:00 3,7 2,3 2,7 4,8 10,2 13,2 21 11 40 21 NNW 45 0 0,0
24.09.2018 23:00:00 4,0 2,8 3,0 5,3 10,5 13,2 19 11 40 22 NW 43 0 0,0
24.09.2018 22:00:00 4,0 2,9 3,0 6,0 10,9 13,3 13 7 31 17 NW 40 0 0,0
24.09.2018 21:00:00 4,1 2,8 3,1 6,9 11,2 13,3 12 7 26 14 NW 57 0 0,0
24.09.2018 20:00:00 4,9 2,7 4,3 7,8 11,4 13,3 14 8 31 17 WNW 70 2 0,0
24.09.2018 19:00:00 6,4 3,2 6,2 9,2 11,5 13,4 14 8 36 19 WNW 70 7 0,0
24.09.2018 18:00:00 7,5 3,2 8,2 9,9 11,6 13,4 14 8 37 20 WNW 70 50 0,0
24.09.2018 17:00:00 8,7 4,2 11,6 11,2 11,5 13,4 14 7 39 21 WNW 35 - 0,0
24.09.2018 16:00:00 7,8 3,0 9,4 12,4 11,3 13,5 11 6 35 19 WNW 70 - 0,0
24.09.2018 15:00:00 8,0 2,7 10,3 13,3 10,9 13,5 17 9 36 20 WNW 59 39 0,0
24.09.2018 14:00:00 7,8 4,2 11,6 12,9 10,4 13,5 16 9 41 22 WNW 40 51 0,0
24.09.2018 13:00:00 6,1 4,3 8,7 12,3 10,0 13,6 15 8 34 19 WNW 30 34 0,0
24.09.2018 12:00:00 5,6 4,9 8,1 10,6 9,8 13,6 16 8 35 19 WNW 17 - 0,0
24.09.2018 11:00:00 4,7 4,6 6,1 8,6 9,7 13,6 16 9 37 20 WNW 3,5 - 0,0
24.09.2018 10:00:00 3,8 3,8 4,6 7,0 9,7 13,7 17 9 37 20 WNW 0,1 - 0,0
24.09.2018 09:00:00 3,6 3,6 4,2 6,3 9,8 13,7 18 10 38 20 WNW 0,1 0 0,0
24.09.2018 08:00:00 3,5 3,5 3,8 6,1 9,9 13,7 17 9 52 28 WNW 0,1 0 0,0
24.09.2018 07:00:00 3,5 3,5 3,8 6,1 10,1 13,7 18 10 40 22 WNW 0,1 0 0,0
24.09.2018 06:00:00 3,6 3,6 3,8 6,3 10,2 13,8 21 11 44 24 WNW 0,2 0 0,0
24.09.2018 05:00:00 3,8 3,8 4,1 6,4 10,4 13,8 19 10 45 24 WNW 0,2 0 0,0
24.09.2018 04:00:00 3,9 3,9 4,2 6,6 10,5 13,8 22 12 42 23 WNW 0,2 0 0,0
24.09.2018 03:00:00 4,0 4,0 4,3 6,7 10,7 13,8 19 10 38 21 NW 0,2 0 0,0
24.09.2018 02:00:00 4,2 4,2 4,5 6,8 10,9 13,8 15 8 40 21 WNW 0,1 0 0,0
24.09.2018 01:00:00 3,9 3,9 4,3 6,9 11,2 13,9 16 9 35 19 NW 0,2 0 0,0
24.09.2018 00:00:00 3,7 3,7 4,1 7,1 11,4 13,9 16 9 41 22 NW 0,1 0 0,0
23.09.2018 23:00:00 3,5 3,5 3,9 7,4 11,7 13,9 21 11 50 27 NW 0,3 0 0,0
23.09.2018 22:00:00 4,4 4,4 4,7 8,0 12,0 13,9 26 14 60 33 NW 0,2 0 0,1
23.09.2018 21:00:00 5,0 5,0 5,3 8,9 12,3 14,0 26 14 52 28 NW 0,6 0 0,4
23.09.2018 20:00:00 6,0 6,0 6,4 9,8 12,5 14,0 21 11 59 32 NW 0,2 0 0,2
23.09.2018 19:00:00 7,6 7,6 7,9 11,0 12,7 14,0 22 12 53 29 NW 0,2 0 0,1
23.09.2018 18:00:00 9,4 9,4 9,7 12,3 12,7 14,1 22 12 47 25 WNW 0,1 0 0,0
23.09.2018 17:00:00 10,4 10,4 10,7 12,7 12,6 14,1 26 14 75 41 WNW 0,2 0 17,0
23.09.2018 16:00:00 15,4 15,4 15,5 14,3 12,3 14,2 35 19 68 37 SW 0,2 0 0,4
23.09.2018 15:00:00 14,9 14,9 15,1 13,8 12,0 14,2 32 17 64 35 SSW 0,1 0 1,6
23.09.2018 14:00:00 14,0 14,0 14,2 13,1 11,8 14,2 27 15 46 25 SSW 0,1 0 1,0
23.09.2018 13:00:00 13,1 13,1 13,3 12,6 11,5 14,3 22 12 38 20 SSW 0,2 0 4,1
23.09.2018 12:00:00 12,7 12,7 13,0 11,9 11,4 14,3 16 9 37 20 SW 0,2 0 6,3
23.09.2018 11:00:00 11,2 11,2 11,5 10,9 11,3 14,3 19 11 42 23 SW 0,2 0 3,8
23.09.2018 10:00:00 10,3 10,3 10,6 10,1 11,2 14,4 23 13 48 26 SSW 0,2 0 2,3
23.09.2018 09:00:00 9,3 9,3 9,4 9,3 11,3 14,4 19 11 31 17 SSW 0,2 0 1,5
23.09.2018 08:00:00 7,7 7,7 7,9 8,8 11,4 14,4 19 10 29 15 SSE 0,3 0 2,7
23.09.2018 07:00:00 7,3 7,3 7,5 8,7 11,4 14,5 17 9 27 15 SSE 0,2 0 2,8
23.09.2018 06:00:00 7,2 7,2 7,4 8,7 11,5 14,5 18 10 29 16 S 0,2 0 1,0
23.09.2018 05:00:00 6,7 6,7 6,8 8,6 11,6 14,5 16 9 30 16 SSE 0,1 0 1,0
23.09.2018 04:00:00 6,5 6,4 6,7 8,6 11,7 14,6 16 9 26 14 SSE 0,1 0 1,0
23.09.2018 03:00:00 6,3 6,2 6,5 8,7 11,9 14,6 13 7 25 14 SSE 0,1 0 0,4
23.09.2018 02:00:00 6,4 6,4 6,6 8,7 12,0 14,6 12 7 25 14 SW 0,2 0 1,2
23.09.2018 01:00:00 6,4 6,1 6,4 8,8 12,2 14,7 14 8 29 15 SW 3,0 0 0,4
23.09.2018 00:00:00 6,6 5,6 6,4 9,0 12,3 14,7 10 5 17 9 SW 27 0 0,1
22.09.2018 23:00:00 6,6 5,7 6,4 9,1 12,5 14,7 9 5 20 11 W 25 0 0,3
22.09.2018 22:00:00 6,8 5,6 6,5 9,3 12,7 14,8 11 6 25 14 W 62 0 0,0
22.09.2018 21:00:00 6,9 6,0 6,7 9,6 12,9 14,8 13 7 25 13 W 62 0 0,1
22.09.2018 20:00:00 7,1 5,3 6,7 10,2 13,1 14,9 11 6 34 19 W 25 0 0,1
22.09.2018 19:00:00 9,2 3,3 8,9 11,1 13,2 14,9 16 9 35 19 W 70 0 0,0
22.09.2018 18:00:00 10,3 3,2 10,3 12,0 13,2 14,9 13 7 31 17 WSW 70 0 0,0
22.09.2018 17:00:00 11,2 2,9 11,8 13,0 13,2 15,0 13 7 33 18 WSW 70 0 0,0
22.09.2018 16:00:00 11,1 4,8 12,0 13,6 13,0 15,0 15 8 31 17 SW 55 0 0,0
22.09.2018 15:00:00 10,9 5,3 12,2 14,1 12,7 15,1 16 9 30 16 SSW 59 4 0,0
22.09.2018 14:00:00 10,0 5,4 11,2 14,2 12,4 15,1 11 6 26 14 SW 59 4 0,0
22.09.2018 13:00:00 10,2 5,0 12,2 14,4 12,0 15,2 15 8 24 13 SSW 63 27 0,0
22.09.2018 12:00:00 10,0 4,7 12,6 13,2 11,6 15,2 13 7 29 16 WSW 44 38 0,0
22.09.2018 11:00:00 8,3 5,3 9,2 10,7 11,4 15,3 8 4 21 11 WSW 63 26 0,0
22.09.2018 10:00:00 6,6 5,0 7,4 8,6 11,4 15,3 12 7 22 12 SW 44 3 0,0
22.09.2018 09:00:00 5,9 4,4 5,9 7,2 11,5 15,3 10 5 23 12 WSW 47 0 0,0
22.09.2018 08:00:00 5,3 4,2 4,7 6,5 11,7 15,4 10 5 25 13 W 41 0 0,0
22.09.2018 07:00:00 5,2 4,0 4,5 6,4 11,9 15,4 12 7 24 13 W 41 0 0,0
22.09.2018 06:00:00 5,4 3,9 4,7 6,3 12,1 15,4 13 7 35 19 W 44 0 0,0
22.09.2018 05:00:00 5,4 3,3 4,5 6,3 12,4 15,4 17 9 44 24 W 57 0 0,0
22.09.2018 04:00:00 5,7 3,0 4,6 6,5 12,7 15,5 18 10 44 24 W 59 0 0,0
22.09.2018 03:00:00 6,3 2,9 5,3 6,8 13,0 15,5 21 12 46 25 W 62 0 0,0
22.09.2018 02:00:00 6,4 2,7 5,3 7,0 13,4 15,5 22 12 46 25 W 70 0 0,0
22.09.2018 01:00:00 6,5 2,6 5,4 7,4 13,8 15,5 23 13 50 27 W 70 0 0,0
22.09.2018 00:00:00 6,9 2,6 6,0 7,9 14,1 15,5 25 14 51 27 W 70 0 0,0
21.09.2018 23:00:00 6,9 3,1 6,0 8,5 14,5 15,5 24 13 51 28 W 70 0 0,0
21.09.2018 22:00:00 6,7 3,5 6,1 9,0 15,0 15,5 21 12 45 24 W 70 0 0,0
21.09.2018 21:00:00 6,3 4,1 5,7 10,0 15,3 15,6 21 11 40 22 W 70 0 0,0
21.09.2018 20:00:00 6,5 5,4 6,2 11,2 15,7 15,6 18 10 37 20 W 70 0 0,0
21.09.2018 19:00:00 8,2 8,0 8,3 12,4 15,9 15,6 16 9 46 25 W 26 0 0,0
21.09.2018 18:00:00 9,4 9,3 9,7 13,0 16,2 15,6 22 12 41 22 W 0,2 0 0,0
21.09.2018 17:00:00 9,0 9,0 9,5 13,0 16,5 15,6 20 11 40 22 W 0,5 0 1,0
21.09.2018 16:00:00 8,8 8,8 9,2 13,8 16,8 15,6 22 12 55 30 W 0,3 0 4,6
21.09.2018 15:00:00 9,6 9,1 10,1 16,2 16,8 15,6 18 10 53 28 W 0,6 0 1,5
21.09.2018 14:00:00 16,6 9,8 16,8 17,5 16,7 15,6 28 15 50 27 SSW 66 0 0,0
21.09.2018 13:00:00 16,2 10,4 16,8 17,3 16,6 15,6 24 13 49 26 SSW 42 0 0,0
21.09.2018 12:00:00 15,8 12,1 16,4 16,6 16,6 15,6 28 15 48 26 SSW 33 0 0,0
21.09.2018 11:00:00 15,0 11,7 15,5 16,3 16,6 15,6 25 13 51 27 SSW 26 0 0,0
21.09.2018 10:00:00 15,3 11,5 15,6 16,0 16,6 15,6 25 14 45 25 SSW 33 0 0,0
21.09.2018 09:00:00 16,4 11,3 16,5 15,7 16,6 15,6 26 14 50 27 SSW 48 38 0,0
21.09.2018 08:00:00 16,0 11,4 15,1 14,7 16,8 15,6 26 14 45 24 S 38 1 0,0
21.09.2018 07:00:00 15,7 11,5 14,5 14,6 17,0 15,5 24 13 42 23 S 39 0 0,0
21.09.2018 06:00:00 15,8 11,4 14,4 14,7 17,2 15,5 22 12 44 24 S 44 0 0,0
21.09.2018 05:00:00 15,8 11,7 14,1 15,0 17,4 15,5 22 12 37 20 SSW 38 0 0,0
21.09.2018 04:00:00 16,8 12,3 15,1 15,3 17,6 15,5 20 11 37 20 S 37 0 0,0
21.09.2018 03:00:00 16,8 12,4 14,9 15,6 17,8 15,5 21 11 35 19 S 43 0 0,0
21.09.2018 02:00:00 17,4 12,2 15,7 15,9 18,1 15,4 20 11 34 19 S 42 0 0,0
21.09.2018 01:00:00 17,3 12,0 15,4 16,2 18,4 15,4 20 11 37 20 S 42 0 0,0
21.09.2018 00:00:00 17,4 11,9 15,5 16,5 18,7 15,4 20 11 37 20 S 45 0 0,0
20.09.2018 23:00:00 17,4 11,9 15,2 17,0 19,0 15,4 18 10 37 20 S 51 0 0,0
20.09.2018 22:00:00 17,6 11,3 15,3 17,6 19,4 15,4 18 10 30 16 S 48 0 0,0
20.09.2018 21:00:00 17,8 10,9 15,3 18,7 19,7 15,4 18 10 31 17 S 58 0 0,0
20.09.2018 20:00:00 18,0 10,9 15,7 20,1 19,9 15,4 17 9 28 15 S 48 0 0,0
20.09.2018 19:00:00 19,4 10,3 18,0 21,9 20,0 15,4 14 7 29 15 SSW 58 51 0,0
20.09.2018 18:00:00 21,5 9,6 22,8 23,6 19,8 15,4 15 8 32 18 SSW 61 60 0,0
20.09.2018 17:00:00 22,6 8,4 25,5 25,3 19,5 15,4 17 9 35 19 SSW 40 60 0,0
20.09.2018 16:00:00 22,3 9,2 25,9 26,3 19,0 15,4 16 9 33 18 SW 41 60 0,0
20.09.2018 15:00:00 22,0 8,8 25,6 26,3 18,4 15,4 15 8 33 18 SSW 27 60 0,0
20.09.2018 14:00:00 21,4 9,6 25,2 25,8 17,8 15,4 18 10 36 20 SSW 27 60 0,0
20.09.2018 13:00:00 20,4 11,0 24,2 24,5 17,2 15,4 19 10 37 20 SSW 18 60 0,0
20.09.2018 12:00:00 19,1 11,5 22,2 22,9 16,7 15,4 18 10 38 20 SSW 33 59 0,0
20.09.2018 11:00:00 18,6 11,6 21,6 20,3 16,3 15,4 19 10 32 17 SW 40 60 0,0
20.09.2018 10:00:00 17,6 11,2 20,1 17,5 16,2 15,4 14 8 29 16 SW 35 60 0,0
20.09.2018 09:00:00 16,1 11,2 16,7 14,4 16,3 15,4 14 7 24 13 SW 29 27 0,0
20.09.2018 08:00:00 14,9 10,9 13,2 13,9 16,5 15,3 14 8 23 12 SW 41 0 0,0
20.09.2018 07:00:00 15,3 10,6 14,1 14,2 16,7 15,3 10 5 24 13 SW 48 0 0,0
20.09.2018 06:00:00 15,3 11,2 13,7 14,2 17,0 15,3 10 5 19 10 W 46 0 0,0
20.09.2018 05:00:00 15,6 11,3 14,0 14,5 17,2 15,3 11 6 23 12 W 44 0 0,0
20.09.2018 04:00:00 15,2 11,8 13,0 14,9 17,4 15,3 10 5 18 10 WNW 45 0 0,0
20.09.2018 03:00:00 15,8 11,8 14,2 15,3 17,7 15,2 12 6 25 14 WNW 46 0 0,0
20.09.2018 02:00:00 16,0 11,7 14,1 15,9 18,0 15,2 13 7 26 14 WNW 49 0 0,0
20.09.2018 01:00:00 16,6 12,8 14,8 16,3 18,2 15,2 13 7 25 13 WNW 41 0 0,0
20.09.2018 00:00:00 17,7 13,0 16,2 16,9 18,5 15,2 14 7 27 15 W 43 0 0,0
19.09.2018 23:00:00 18,3 12,8 16,4 17,5 18,8 15,2 13 7 26 14 W 49 0 0,0
19.09.2018 22:00:00 19,1 12,2 17,5 18,1 19,1 15,2 13 7 29 16 WSW 58 0 0,0
19.09.2018 21:00:00 19,5 11,9 18,1 18,9 19,3 15,2 14 7 28 15 SW 59 0 0,0
19.09.2018 20:00:00 19,7 11,9 18,1 20,1 19,5 15,2 15 8 29 16 SSW 65 11 0,0
19.09.2018 19:00:00 21,3 11,8 20,3 21,6 19,6 15,1 15 8 34 18 SSW 61 53 0,0
19.09.2018 18:00:00 22,1 11,8 22,4 23,1 19,5 15,2 18 10 41 22 SW 66 43 0,0
19.09.2018 17:00:00 23,3 11,5 25,6 24,8 19,1 15,2 21 12 40 22 SSW 37 55 0,0
19.09.2018 16:00:00 24,1 11,5 27,4 25,9 18,7 15,2 18 10 39 21 SW 25 53 0,0
19.09.2018 15:00:00 23,4 12,6 27,0 25,5 18,1 15,2 18 10 34 18 SSW 45 44 0,0
19.09.2018 14:00:00 22,1 12,5 25,5 25,6 17,5 15,2 15 8 32 17 SSW 25 59 0,0
19.09.2018 13:00:00 21,7 12,9 25,1 24,3 16,9 15,1 15 8 27 14 SSW 37 59 0,0
19.09.2018 12:00:00 20,8 12,1 24,5 22,8 16,4 15,1 10 6 24 13 SW 43 59 0,0
19.09.2018 11:00:00 20,0 12,4 23,3 20,1 16,0 15,1 11 6 22 12 SSW 70 60 0,0
19.09.2018 10:00:00 18,4 12,3 20,2 17,5 15,9 15,1 10 5 19 11 SW 50 60 0,0
19.09.2018 09:00:00 17,3 12,3 18,0 15,3 15,9 15,1 8 5 22 12 WSW 44 57 0,0

tt = Température de l'air
td = dewpoint
tt 5cm = Température de l'air 5cm
tt -5cm = Température de l'air -5cm
tt -20cm = Température de l'air -20cm
tt -100cm = Température de l'air -100cm
ff = Vitesse du vent
fx = gusts
dd = Direction du vent
vv = visibility
sd = Ensoleillement
rr = Quantités de précipitations

stations d'obs. à proximité